Terminal Aerodrome Forecast
Issued by NWS

Home | Current Version | Previous Version | Text Only | Print | Product List | Glossary On
Versions: 1 2 3 4 5 6 7 8 9 10 11 12 13 14 15 16 17 18 19 20 21 22 23 24 25
000
FTUS43 KGRR 041303 AAA
TAFJXN
TAF AMD
KJXN 041303Z 0413/0512 28004KT 4SM BR OVC008
     FM041800 19007KT P6SM SHRA VCTS BKN025CB
     FM050200 VRB02KT P6SM SCT050
     FM050300 00000KT 4SM BR SKC
     FM050600 00000KT 2SM BR SCT070=

USA.gov is the U.S. government's official web portal to all federal, state and local government web resources and services.